sensor_id;sensor_type;location;lat;lon;timestamp;P1;durP1;ratioP1;P2;durP2;ratioP2
23768;SDS011;12064;50.890;5.424;2024-01-15T00:08:25;5.78;;;4.45;;
23768;SDS011;12064;50.890;5.424;2024-01-15T00:17:15;5.68;;;4.38;;
23768;SDS011;12064;50.890;5.424;2024-01-15T00:26:06;5.53;;;4.03;;
23768;SDS011;12064;50.890;5.424;2024-01-15T00:34:57;6.55;;;4.60;;
23768;SDS011;12064;50.890;5.424;2024-01-15T00:43:47;6.10;;;4.20;;
23768;SDS011;12064;50.890;5.424;2024-01-15T00:52:41;4.95;;;4.40;;
23768;SDS011;12064;50.890;5.424;2024-01-15T01:01:32;6.72;;;4.55;;
23768;SDS011;12064;50.890;5.424;2024-01-15T01:10:22;5.65;;;4.40;;
23768;SDS011;12064;50.890;5.424;2024-01-15T01:19:13;6.17;;;4.50;;
23768;SDS011;12064;50.890;5.424;2024-01-15T01:28:04;5.25;;;4.45;;
23768;SDS011;12064;50.890;5.424;2024-01-15T01:36:55;5.03;;;4.07;;
23768;SDS011;12064;50.890;5.424;2024-01-15T01:45:45;5.77;;;4.20;;
23768;SDS011;12064;50.890;5.424;2024-01-15T01:54:36;4.82;;;3.90;;
23768;SDS011;12064;50.890;5.424;2024-01-15T02:03:30;5.10;;;4.05;;
23768;SDS011;12064;50.890;5.424;2024-01-15T02:12:21;4.72;;;3.90;;
23768;SDS011;12064;50.890;5.424;2024-01-15T02:21:12;5.93;;;4.20;;
23768;SDS011;12064;50.890;5.424;2024-01-15T02:30:02;5.05;;;3.90;;
23768;SDS011;12064;50.890;5.424;2024-01-15T02:38:54;4.68;;;4.13;;
23768;SDS011;12064;50.890;5.424;2024-01-15T02:47:45;5.38;;;4.25;;
23768;SDS011;12064;50.890;5.424;2024-01-15T02:56:38;5.50;;;3.95;;
23768;SDS011;12064;50.890;5.424;2024-01-15T03:05:29;4.30;;;3.90;;
23768;SDS011;12064;50.890;5.424;2024-01-15T03:14:20;4.65;;;3.63;;
23768;SDS011;12064;50.890;5.424;2024-01-15T03:23:10;4.80;;;3.47;;
23768;SDS011;12064;50.890;5.424;2024-01-15T03:32:01;4.45;;;3.92;;
23768;SDS011;12064;50.890;5.424;2024-01-15T03:40:52;3.83;;;3.40;;
23768;SDS011;12064;50.890;5.424;2024-01-15T03:49:42;4.57;;;3.73;;
23768;SDS011;12064;50.890;5.424;2024-01-15T03:58:33;3.88;;;3.45;;
23768;SDS011;12064;50.890;5.424;2024-01-15T04:07:24;5.30;;;3.45;;
23768;SDS011;12064;50.890;5.424;2024-01-15T04:16:14;4.00;;;3.60;;
23768;SDS011;12064;50.890;5.424;2024-01-15T04:25:05;3.70;;;3.15;;
23768;SDS011;12064;50.890;5.424;2024-01-15T04:33:56;4.57;;;3.60;;
23768;SDS011;12064;50.890;5.424;2024-01-15T04:42:47;3.88;;;3.30;;
23768;SDS011;12064;50.890;5.424;2024-01-15T04:51:38;4.40;;;3.03;;
23768;SDS011;12064;50.890;5.424;2024-01-15T05:00:31;3.95;;;3.47;;
23768;SDS011;12064;50.890;5.424;2024-01-15T05:09:22;5.50;;;3.60;;
23768;SDS011;12064;50.890;5.424;2024-01-15T05:18:12;6.57;;;4.38;;
23768;SDS011;12064;50.890;5.424;2024-01-15T05:27:03;5.93;;;4.28;;
23768;SDS011;12064;50.890;5.424;2024-01-15T05:35:54;4.60;;;3.80;;
23768;SDS011;12064;50.890;5.424;2024-01-15T05:44:45;5.00;;;4.05;;
23768;SDS011;12064;50.890;5.424;2024-01-15T05:53:35;5.23;;;3.87;;
23768;SDS011;12064;50.890;5.424;2024-01-15T06:02:28;6.82;;;4.65;;
23768;SDS011;12064;50.890;5.424;2024-01-15T06:11:19;6.15;;;5.03;;
23768;SDS011;12064;50.890;5.424;2024-01-15T06:20:10;9.45;;;6.35;;
23768;SDS011;12064;50.890;5.424;2024-01-15T06:29:01;9.52;;;5.22;;
23768;SDS011;12064;50.890;5.424;2024-01-15T06:37:52;6.82;;;4.38;;
23768;SDS011;12064;50.890;5.424;2024-01-15T06:46:43;6.10;;;4.20;;
23768;SDS011;12064;50.890;5.424;2024-01-15T06:55:34;5.78;;;4.40;;
23768;SDS011;12064;50.890;5.424;2024-01-15T07:04:25;4.23;;;3.30;;
23768;SDS011;12064;50.890;5.424;2024-01-15T07:13:15;4.47;;;3.77;;
23768;SDS011;12064;50.890;5.424;2024-01-15T07:22:06;3.85;;;3.50;;
23768;SDS011;12064;50.890;5.424;2024-01-15T07:30:58;4.30;;;3.42;;
23768;SDS011;12064;50.890;5.424;2024-01-15T07:39:51;4.85;;;3.47;;
23768;SDS011;12064;50.890;5.424;2024-01-15T07:48:42;3.60;;;3.30;;
23768;SDS011;12064;50.890;5.424;2024-01-15T07:57:33;3.47;;;3.10;;
23768;SDS011;12064;50.890;5.424;2024-01-15T08:06:25;4.20;;;2.92;;
23768;SDS011;12064;50.890;5.424;2024-01-15T08:15:16;3.88;;;3.05;;
23768;SDS011;12064;50.890;5.424;2024-01-15T08:24:08;3.53;;;3.13;;
23768;SDS011;12064;50.890;5.424;2024-01-15T08:32:59;4.05;;;2.90;;
23768;SDS011;12064;50.890;5.424;2024-01-15T08:41:50;3.28;;;2.85;;
23768;SDS011;12064;50.890;5.424;2024-01-15T08:50:40;3.80;;;2.90;;
23768;SDS011;12064;50.890;5.424;2024-01-15T08:59:31;3.00;;;2.70;;
23768;SDS011;12064;50.890;5.424;2024-01-15T09:08:22;3.47;;;2.70;;
23768;SDS011;12064;50.890;5.424;2024-01-15T09:17:15;3.07;;;2.77;;
23768;SDS011;12064;50.890;5.424;2024-01-15T09:26:07;3.00;;;2.55;;
23768;SDS011;12064;50.890;5.424;2024-01-15T09:34:59;4.35;;;2.70;;
23768;SDS011;12064;50.890;5.424;2024-01-15T09:43:50;3.67;;;2.57;;
23768;SDS011;12064;50.890;5.424;2024-01-15T09:52:43;3.53;;;2.60;;
23768;SDS011;12064;50.890;5.424;2024-01-15T10:01:34;3.50;;;2.30;;
23768;SDS011;12064;50.890;5.424;2024-01-15T10:10:26;3.25;;;2.53;;
23768;SDS011;12064;50.890;5.424;2024-01-15T10:19:17;2.70;;;2.47;;
23768;SDS011;12064;50.890;5.424;2024-01-15T10:28:08;4.13;;;2.83;;
23768;SDS011;12064;50.890;5.424;2024-01-15T10:37:00;3.40;;;2.60;;
23768;SDS011;12064;50.890;5.424;2024-01-15T10:45:52;2.58;;;2.38;;
23768;SDS011;12064;50.890;5.424;2024-01-15T10:54:43;2.60;;;2.40;;
23768;SDS011;12064;50.890;5.424;2024-01-15T11:03:35;2.53;;;2.00;;
23768;SDS011;12064;50.890;5.424;2024-01-15T11:12:26;2.47;;;2.28;;
23768;SDS011;12064;50.890;5.424;2024-01-15T11:30:08;2.53;;;2.03;;
23768;SDS011;12064;50.890;5.424;2024-01-15T11:39:08;3.17;;;2.20;;
23768;SDS011;12064;50.890;5.424;2024-01-15T11:48:17;2.72;;;2.30;;
23768;SDS011;12064;50.890;5.424;2024-01-15T11:57:10;2.40;;;2.20;;
23768;SDS011;12064;50.890;5.424;2024-01-15T12:06:09;2.95;;;2.20;;
23768;SDS011;12064;50.890;5.424;2024-01-15T12:15:00;2.10;;;1.90;;
23768;SDS011;12064;50.890;5.424;2024-01-15T12:23:51;2.30;;;2.10;;
23768;SDS011;12064;50.890;5.424;2024-01-15T12:32:42;2.88;;;2.10;;
23768;SDS011;12064;50.890;5.424;2024-01-15T12:41:33;2.40;;;2.20;;
23768;SDS011;12064;50.890;5.424;2024-01-15T12:50:24;2.28;;;2.00;;
23768;SDS011;12064;50.890;5.424;2024-01-15T12:59:16;2.20;;;1.95;;
23768;SDS011;12064;50.890;5.424;2024-01-15T13:08:07;2.58;;;1.90;;
23768;SDS011;12064;50.890;5.424;2024-01-15T13:16:58;2.23;;;1.67;;
23768;SDS011;12064;50.890;5.424;2024-01-15T13:25:49;1.88;;;1.67;;
23768;SDS011;12064;50.890;5.424;2024-01-15T13:34:40;2.20;;;1.73;;
23768;SDS011;12064;50.890;5.424;2024-01-15T13:43:31;2.00;;;1.65;;
23768;SDS011;12064;50.890;5.424;2024-01-15T13:52:23;2.25;;;2.05;;
23768;SDS011;12064;50.890;5.424;2024-01-15T14:01:15;1.80;;;1.70;;
23768;SDS011;12064;50.890;5.424;2024-01-15T14:10:07;1.65;;;1.55;;
23768;SDS011;12064;50.890;5.424;2024-01-15T14:18:58;1.63;;;1.50;;
23768;SDS011;12064;50.890;5.424;2024-01-15T14:27:49;1.88;;;1.70;;
23768;SDS011;12064;50.890;5.424;2024-01-15T14:36:40;2.05;;;1.70;;
23768;SDS011;12064;50.890;5.424;2024-01-15T14:45:31;1.60;;;1.50;;
23768;SDS011;12064;50.890;5.424;2024-01-15T14:54:21;1.60;;;1.50;;
23768;SDS011;12064;50.890;5.424;2024-01-15T15:03:15;1.52;;;1.40;;
23768;SDS011;12064;50.890;5.424;2024-01-15T15:12:07;1.65;;;1.55;;
23768;SDS011;12064;50.890;5.424;2024-01-15T15:20:58;2.45;;;1.73;;
23768;SDS011;12064;50.890;5.424;2024-01-15T15:29:49;1.60;;;1.50;;
23768;SDS011;12064;50.890;5.424;2024-01-15T15:38:40;1.58;;;1.48;;
23768;SDS011;12064;50.890;5.424;2024-01-15T15:47:31;1.33;;;1.20;;
23768;SDS011;12064;50.890;5.424;2024-01-15T15:56:23;1.70;;;1.60;;
23768;SDS011;12064;50.890;5.424;2024-01-15T16:05:15;1.40;;;1.30;;
23768;SDS011;12064;50.890;5.424;2024-01-15T16:14:06;1.63;;;1.40;;
23768;SDS011;12064;50.890;5.424;2024-01-15T16:22:57;2.10;;;1.60;;
23768;SDS011;12064;50.890;5.424;2024-01-15T16:31:47;1.55;;;1.35;;
23768;SDS011;12064;50.890;5.424;2024-01-15T16:40:38;1.50;;;1.27;;
23768;SDS011;12064;50.890;5.424;2024-01-15T16:49:29;1.77;;;1.48;;
23768;SDS011;12064;50.890;5.424;2024-01-15T16:58:20;1.60;;;1.40;;
23768;SDS011;12064;50.890;5.424;2024-01-15T17:07:10;1.40;;;1.30;;
23768;SDS011;12064;50.890;5.424;2024-01-15T17:16:02;1.70;;;1.35;;
23768;SDS011;12064;50.890;5.424;2024-01-15T17:24:53;1.60;;;1.48;;
23768;SDS011;12064;50.890;5.424;2024-01-15T17:33:44;1.88;;;1.52;;
23768;SDS011;12064;50.890;5.424;2024-01-15T17:42:34;2.50;;;1.50;;
23768;SDS011;12064;50.890;5.424;2024-01-15T17:51:25;2.42;;;1.50;;
23768;SDS011;12064;50.890;5.424;2024-01-15T18:00:16;2.55;;;1.55;;
23768;SDS011;12064;50.890;5.424;2024-01-15T18:09:07;2.67;;;1.52;;
23768;SDS011;12064;50.890;5.424;2024-01-15T18:17:57;1.92;;;1.30;;
23768;SDS011;12064;50.890;5.424;2024-01-15T18:26:50;1.90;;;1.40;;
23768;SDS011;12064;50.890;5.424;2024-01-15T18:35:42;2.50;;;1.50;;
23768;SDS011;12064;50.890;5.424;2024-01-15T18:44:34;2.65;;;1.48;;
23768;SDS011;12064;50.890;5.424;2024-01-15T18:53:25;1.85;;;1.50;;
23768;SDS011;12064;50.890;5.424;2024-01-15T19:02:15;1.92;;;1.40;;
23768;SDS011;12064;50.890;5.424;2024-01-15T19:11:06;2.13;;;1.50;;
23768;SDS011;12064;50.890;5.424;2024-01-15T19:19:57;2.22;;;1.48;;
23768;SDS011;12064;50.890;5.424;2024-01-15T19:28:48;2.22;;;1.42;;
23768;SDS011;12064;50.890;5.424;2024-01-15T19:37:41;2.40;;;1.42;;
23768;SDS011;12064;50.890;5.424;2024-01-15T19:46:32;2.28;;;1.55;;
23768;SDS011;12064;50.890;5.424;2024-01-15T19:55:24;1.60;;;1.20;;
23768;SDS011;12064;50.890;5.424;2024-01-15T20:04:14;2.60;;;1.40;;
23768;SDS011;12064;50.890;5.424;2024-01-15T20:13:05;2.20;;;1.40;;
23768;SDS011;12064;50.890;5.424;2024-01-15T20:21:56;1.50;;;1.33;;
23768;SDS011;12064;50.890;5.424;2024-01-15T20:30:47;1.88;;;1.40;;
23768;SDS011;12064;50.890;5.424;2024-01-15T20:39:38;2.10;;;1.33;;
23768;SDS011;12064;50.890;5.424;2024-01-15T20:48:29;1.40;;;1.30;;
23768;SDS011;12064;50.890;5.424;2024-01-15T20:57:20;2.65;;;1.40;;
23768;SDS011;12064;50.890;5.424;2024-01-15T21:06:11;3.20;;;1.40;;
23768;SDS011;12064;50.890;5.424;2024-01-15T21:15:01;2.05;;;1.52;;
23768;SDS011;12064;50.890;5.424;2024-01-15T21:23:52;2.05;;;1.40;;
23768;SDS011;12064;50.890;5.424;2024-01-15T21:32:43;2.33;;;1.40;;
23768;SDS011;12064;50.890;5.424;2024-01-15T21:41:34;1.60;;;1.38;;
23768;SDS011;12064;50.890;5.424;2024-01-15T21:50:26;1.92;;;1.30;;
23768;SDS011;12064;50.890;5.424;2024-01-15T21:59:16;1.88;;;1.25;;
23768;SDS011;12064;50.890;5.424;2024-01-15T22:08:08;2.17;;;1.55;;
23768;SDS011;12064;50.890;5.424;2024-01-15T22:16:59;2.22;;;1.38;;
23768;SDS011;12064;50.890;5.424;2024-01-15T22:25:50;2.57;;;1.40;;
23768;SDS011;12064;50.890;5.424;2024-01-15T22:34:40;1.77;;;1.27;;
23768;SDS011;12064;50.890;5.424;2024-01-15T22:43:31;2.63;;;1.20;;
23768;SDS011;12064;50.890;5.424;2024-01-15T22:52:22;1.75;;;1.20;;
23768;SDS011;12064;50.890;5.424;2024-01-15T23:01:12;2.30;;;1.30;;
23768;SDS011;12064;50.890;5.424;2024-01-15T23:10:05;1.60;;;1.40;;
23768;SDS011;12064;50.890;5.424;2024-01-15T23:18:58;1.77;;;1.13;;
23768;SDS011;12064;50.890;5.424;2024-01-15T23:27:49;2.15;;;1.25;;
23768;SDS011;12064;50.890;5.424;2024-01-15T23:36:41;3.55;;;1.50;;
23768;SDS011;12064;50.890;5.424;2024-01-15T23:45:32;1.35;;;1.05;;
23768;SDS011;12064;50.890;5.424;2024-01-15T23:54:23;3.63;;;1.30;;
